Time;durP1;ratioP1;P1;durP2;ratioP2;P2;SDS_P1;SDS_P2;PMS_P1;PMS_P2;Temp;Humidity;BMP_temperature;BMP_pressure;BME280_temperature;BME280_humidity;BME280_pressure;Samples;Min_cycle;Max_cycle;Signal;HPM_P1;HPM_P2
2023/05/21 00:00:41;;;;;;;3.17;2.88;;;;;;;13.97;75.45;102000.06;4966224;28;20367;-84
2023/05/21 00:03:12;;;;;;;4.53;3.40;;;;;;;13.95;75.45;101999.25;4983178;28;20042;-84
2023/05/21 00:05:40;;;;;;;4.22;3.83;;;;;;;13.90;76.31;101994.16;4976220;28;20041;-84
2023/05/21 00:08:06;;;;;;;4.88;4.57;;;;;;;13.88;76.70;101992.50;4983648;28;20229;-84
2023/05/21 00:10:32;;;;;;;5.55;4.70;;;;;;;13.85;77.61;101997.88;4977909;28;20052;-84
2023/05/21 00:12:57;;;;;;;5.47;5.07;;;;;;;13.84;78.02;101991.75;4961846;28;20062;-84
2023/05/21 00:15:23;;;;;;;5.32;4.60;;;;;;;13.83;77.98;101988.25;4974858;28;20035;-84
2023/05/21 00:17:48;;;;;;;5.90;4.55;;;;;;;13.77;79.43;101984.97;4961224;28;20400;-84
2023/05/21 00:20:15;;;;;;;5.80;4.95;;;;;;;13.72;79.35;101985.16;4961932;28;20047;-84
2023/05/21 00:22:41;;;;;;;4.68;4.18;;;;;;;13.69;79.91;101982.63;4962048;28;20054;-84
2023/05/21 00:25:07;;;;;;;16.98;4.70;;;;;;;13.65;80.82;101978.38;4975950;28;20038;-84
2023/05/21 00:27:32;;;;;;;4.97;4.47;;;;;;;13.64;80.59;101979.28;4974560;28;20334;-84
2023/05/21 00:29:58;;;;;;;4.53;4.13;;;;;;;13.63;80.84;101975.81;4980513;28;20117;-84
2023/05/21 00:32:23;;;;;;;5.53;4.40;;;;;;;13.63;80.89;101975.81;4966558;28;20227;-84
2023/05/21 00:34:48;;;;;;;5.10;4.05;;;;;;;13.64;80.82;101971.41;4974054;28;20045;-84
2023/05/21 00:37:15;;;;;;;4.47;4.10;;;;;;;13.63;80.78;101970.53;4976638;28;20250;-84
2023/05/21 00:39:40;;;;;;;5.18;4.15;;;;;;;13.62;81.11;101976.75;4978942;28;20045;-84
2023/05/21 00:42:06;;;;;;;4.53;3.97;;;;;;;13.63;81.14;101970.53;4970903;28;20047;-84
2023/05/21 00:44:34;;;;;;;5.10;4.40;;;;;;;13.65;80.69;101972.28;4973694;28;20042;-84
2023/05/21 00:47:01;;;;;;;6.00;3.70;;;;;;;13.63;81.34;101973.19;4970563;28;20404;-84
2023/05/21 00:49:27;;;;;;;5.00;4.18;;;;;;;13.57;82.12;101970.78;4980448;28;20049;-84
2023/05/21 00:51:53;;;;;;;9.00;4.10;;;;;;;13.56;82.25;101971.66;4971849;28;20035;-84
2023/05/21 00:54:19;;;;;;;5.68;4.05;;;;;;;13.58;81.92;101977.72;4971620;28;20105;-84
2023/05/21 00:56:46;;;;;;;3.97;3.60;;;;;;;13.59;82.13;101970.72;4969125;28;20077;-84
2023/05/21 00:59:12;;;;;;;4.50;3.88;;;;;;;13.56;82.74;101969.03;4980034;28;20090;-84
2023/05/21 01:05:07;;;;;;;10.23;5.00;;;;;;;13.47;83.65;101973.78;4978686;28;20157;-84
2023/05/21 01:07:37;;;;;;;7.50;3.97;;;;;;;13.51;83.75;101967.47;4987604;28;20050;-84
2023/05/21 01:10:06;;;;;;;4.47;4.07;;;;;;;13.49;84.08;101964.06;4990469;28;20046;-84
2023/05/21 01:12:33;;;;;;;5.45;4.45;;;;;;;13.38;84.85;101964.41;4981315;28;20076;-84
2023/05/21 01:15:01;;;;;;;5.38;4.78;;;;;;;13.39;85.00;101966.16;4999306;28;20396;-84
2023/05/21 01:17:28;;;;;;;5.85;4.50;;;;;;;13.41;85.37;101962.53;4971883;28;20042;-84
2023/05/21 01:19:56;;;;;;;6.20;4.47;;;;;;;13.38;85.34;101957.38;4981576;28;20361;-84
2023/05/21 01:22:23;;;;;;;5.87;4.20;;;;;;;13.39;85.73;101953.00;4991318;28;20282;-84
2023/05/21 01:24:49;;;;;;;4.85;4.40;;;;;;;13.40;85.58;101952.06;4979690;28;20151;-84
2023/05/21 01:27:15;;;;;;;4.30;3.90;;;;;;;13.46;84.84;101959.72;4972386;28;20140;-84
2023/05/21 01:29:40;;;;;;;8.13;4.38;;;;;;;13.46;85.06;101953.63;4979234;28;20345;-84
2023/05/21 01:32:17;;;;;;;10.02;4.72;;;;;;;13.46;85.07;101954.47;4984230;28;20349;-84
2023/05/21 01:34:57;;;;;;;4.45;4.05;;;;;;;13.48;84.89;101949.16;4980875;28;20416;-84
2023/05/21 01:37:31;;;;;;;4.63;3.90;;;;;;;13.49;85.05;101956.16;4982670;28;20075;-84
2023/05/21 01:40:04;;;;;;;7.25;4.70;;;;;;;13.47;85.08;101948.31;4979319;28;20062;-84
2023/05/21 01:42:31;;;;;;;5.32;4.60;;;;;;;13.46;84.69;101953.63;4963040;28;20329;-84
2023/05/21 01:44:59;;;;;;;4.55;4.15;;;;;;;13.46;85.30;101951.84;4978923;28;20030;-84
2023/05/21 01:47:27;;;;;;;10.75;4.72;;;;;;;13.48;85.12;101962.31;4990816;28;20046;-84
2023/05/21 01:49:53;;;;;;;4.80;4.40;;;;;;;13.48;85.19;101960.56;4979114;28;20065;-84
2023/05/21 01:52:19;;;;;;;4.80;4.40;;;;;;;13.44;85.65;101948.41;4983951;28;20353;-84
2023/05/21 01:54:44;;;;;;;4.57;4.18;;;;;;;13.44;85.66;101958.94;4998288;28;20038;-84
2023/05/21 01:57:10;;;;;;;4.32;4.00;;;;;;;13.44;85.91;101953.66;4966244;28;20042;-84
2023/05/21 01:59:35;;;;;;;4.57;4.00;;;;;;;13.47;85.87;101953.56;4961426;28;20349;-84
2023/05/21 02:02:01;;;;;;;6.68;4.38;;;;;;;13.51;85.40;101956.97;4982917;28;20065;-84
2023/05/21 02:04:26;;;;;;;7.95;4.70;;;;;;;13.47;85.90;101958.00;4961444;28;20038;-84
2023/05/21 02:06:53;;;;;;;7.55;4.50;;;;;;;13.47;86.16;101953.56;4992727;28;20049;-84
2023/05/21 02:09:19;;;;;;;5.18;4.32;;;;;;;13.48;86.08;101955.31;4962857;28;20059;-84
2023/05/21 02:11:44;;;;;;;4.85;4.35;;;;;;;13.46;85.81;101946.56;4961093;28;20053;-84
2023/05/21 02:14:12;;;;;;;4.55;4.15;;;;;;;13.47;86.24;101942.19;4964636;28;20105;-84
2023/05/21 02:16:38;;;;;;;10.80;4.87;;;;;;;13.46;86.27;101938.69;4962615;28;20233;-84
2023/05/21 02:19:04;;;;;;;11.20;5.00;;;;;;;13.45;86.66;101939.63;4965794;28;20055;-84
2023/05/21 02:21:29;;;;;;;5.72;5.00;;;;;;;13.44;86.52;101943.16;4960859;28;20035;-80
2023/05/21 02:23:55;;;;;;;4.82;4.32;;;;;;;13.44;86.62;101946.66;4966129;28;20069;-80
2023/05/21 02:26:21;;;;;;;4.43;4.00;;;;;;;13.49;86.20;101946.47;4961267;28;20049;-80
2023/05/21 02:28:47;;;;;;;6.38;4.57;;;;;;;13.46;87.02;101943.94;4965635;28;20046;-80
2023/05/21 02:31:12;;;;;;;8.82;5.47;;;;;;;13.42;87.48;101940.59;4945536;28;20251;-80
2023/05/21 02:33:40;;;;;;;6.00;4.70;;;;;;;13.42;87.29;101939.72;4959141;28;20041;-82
2023/05/21 02:36:11;;;;;;;9.27;4.65;;;;;;;13.39;87.73;101942.47;4964272;28;20038;-80
2023/05/21 02:38:37;;;;;;;8.00;5.40;;;;;;;13.45;87.54;101942.25;4964316;28;20222;-80
2023/05/21 02:41:03;;;;;;;5.22;4.80;;;;;;;13.45;87.31;101947.50;4997596;28;20100;-80
2023/05/21 02:43:28;;;;;;;6.30;4.55;;;;;;;13.48;87.46;101941.25;4963814;28;20069;-80
2023/05/21 02:45:53;;;;;;;6.25;5.05;;;;;;;13.47;87.86;101945.69;4963763;28;20046;-80
2023/05/21 02:48:19;;;;;;;5.97;4.90;;;;;;;13.50;87.37;101942.06;4992763;28;20255;-80
2023/05/21 02:50:44;;;;;;;6.22;4.63;;;;;;;13.51;87.70;101946.44;4967078;28;20065;-80
2023/05/21 02:53:10;;;;;;;4.85;4.45;;;;;;;13.53;87.28;101947.22;5006740;28;20054;-80
2023/05/21 02:55:35;;;;;;;5.68;4.55;;;;;;;13.50;87.94;101940.31;4990508;28;20043;-80
2023/05/21 02:58:01;;;;;;;5.15;4.70;;;;;;;13.49;87.85;101932.47;4953400;28;20431;-80
2023/05/21 03:00:26;;;;;;;5.65;4.72;;;;;;;13.52;87.95;101932.38;4963993;28;20243;-80
2023/05/21 03:02:51;;;;;;;5.38;4.85;;;;;;;13.55;87.63;101940.13;4997513;28;20030;-80
2023/05/21 03:05:17;;;;;;;5.13;4.50;;;;;;;13.53;88.02;101936.72;4962889;28;20069;-80
2023/05/21 03:07:42;;;;;;;6.05;4.97;;;;;;;13.52;88.27;101941.13;4979216;28;20034;-80
2023/05/21 03:10:08;;;;;;;5.50;5.00;;;;;;;13.52;88.50;101940.28;4962644;28;20058;-80
2023/05/21 03:12:35;;;;;;;5.05;4.60;;;;;;;13.53;88.20;101936.72;4964077;28;20038;-80
2023/05/21 03:15:00;;;;;;;6.18;4.72;;;;;;;13.53;88.01;101940.19;4996193;28;20297;-81
2023/05/21 03:17:26;;;;;;;8.30;4.88;;;;;;;13.56;88.27;101939.25;4963786;28;20042;-80
2023/05/21 03:19:53;;;;;;;8.82;4.93;;;;;;;13.57;88.16;101933.03;4963554;28;20069;-80
2023/05/21 03:22:18;;;;;;;5.65;4.90;;;;;;;13.50;89.21;101927.16;4983307;28;20325;-80
2023/05/21 03:24:45;;;;;;;5.82;4.47;;;;;;;13.53;88.86;101926.19;4971643;28;20046;-80
2023/05/21 03:27:10;;;;;;;5.60;4.80;;;;;;;13.57;88.76;101920.75;4964359;28;20042;-81
2023/05/21 03:29:36;;;;;;;6.13;5.13;;;;;;;13.53;89.28;101927.03;4999483;28;20358;-80
2023/05/21 03:32:02;;;;;;;6.05;4.85;;;;;;;13.58;89.31;101926.88;5001175;28;20048;-80
2023/05/21 03:34:27;;;;;;;6.47;5.28;;;;;;;13.57;89.38;101928.66;4996838;28;20105;-80
2023/05/21 03:36:53;;;;;;;5.88;5.28;;;;;;;13.59;89.10;101928.59;4982755;28;20042;-80
2023/05/21 03:39:18;;;;;;;6.68;6.07;;;;;;;13.57;88.97;101927.78;4992513;28;20034;-80
2023/05/21 03:41:44;;;;;;;5.82;5.05;;;;;;;13.59;89.40;101926.81;4964092;28;20054;-80
2023/05/21 03:44:09;;;;;;;4.93;4.53;;;;;;;13.61;88.82;101925.00;4990548;28;20245;-80
2023/05/21 03:46:34;;;;;;;5.90;5.25;;;;;;;13.60;89.05;101925.91;4981253;28;20065;-80
2023/05/21 03:49:01;;;;;;;5.40;4.47;;;;;;;13.66;89.22;101932.75;4976151;28;20345;-80
2023/05/21 03:51:26;;;;;;;7.47;5.05;;;;;;;13.68;88.83;101930.91;4983570;28;20072;-80
2023/05/21 03:53:52;;;;;;;6.15;5.47;;;;;;;13.64;89.57;101931.91;4990355;28;20042;-80
2023/05/21 03:56:17;;;;;;;10.95;5.30;;;;;;;13.62;89.53;101931.09;5001290;28;20060;-80
2023/05/21 03:58:43;;;;;;;5.95;5.43;;;;;;;13.66;89.41;101927.47;4975169;28;20034;-80
2023/05/21 04:01:09;;;;;;;6.75;6.05;;;;;;;13.64;89.56;101926.66;4983439;28;20058;-80
2023/05/21 04:03:35;;;;;;;6.10;5.50;;;;;;;13.63;89.97;101931.06;4999634;28;20034;-80
2023/05/21 04:06:01;;;;;;;7.00;5.78;;;;;;;13.66;89.61;101926.59;4982188;28;20046;-80
2023/05/21 04:08:27;;;;;;;7.88;6.00;;;;;;;13.62;89.95;101931.09;4986353;28;20042;-80
2023/05/21 04:10:52;;;;;;;6.10;5.50;;;;;;;13.65;89.94;101931.00;4964270;28;20392;-80
2023/05/21 04:13:18;;;;;;;6.20;5.60;;;;;;;13.65;89.88;101927.53;4967040;28;20045;-80
2023/05/21 04:15:45;;;;;;;7.00;6.30;;;;;;;13.61;90.34;101930.25;4984348;28;20268;-80
2023/05/21 04:18:12;;;;;;;6.22;5.50;;;;;;;13.67;90.29;101928.31;4985835;28;20405;-81
2023/05/21 04:20:38;;;;;;;7.07;5.10;;;;;;;13.70;89.28;101928.19;4961372;28;20046;-80
2023/05/21 04:23:03;;;;;;;6.03;5.55;;;;;;;13.68;89.68;101930.03;4963592;28;20030;-80
2023/05/21 04:25:28;;;;;;;8.70;6.03;;;;;;;13.69;89.76;101932.59;4980910;28;20166;-80
2023/05/21 04:27:54;;;;;;;6.82;6.13;;;;;;;13.69;90.01;101931.75;4965382;28;20038;-81
2023/05/21 04:30:19;;;;;;;6.68;6.07;;;;;;;13.68;90.01;101924.75;4950465;28;20034;-80
2023/05/21 04:32:46;;;;;;;7.07;6.38;;;;;;;13.67;90.00;101931.81;4998928;28;20038;-80
2023/05/21 04:35:14;;;;;;;7.07;5.90;;;;;;;13.65;90.67;101933.63;4958870;28;20070;-81
2023/05/21 04:37:40;;;;;;;6.47;5.97;;;;;;;13.65;90.66;101936.28;4966032;28;20038;-80
2023/05/21 04:40:09;;;;;;;7.75;6.15;;;;;;;13.66;90.64;101932.75;4954841;28;20038;-80
2023/05/21 04:42:35;;;;;;;6.07;5.47;;;;;;;13.66;90.42;101930.09;4965643;28;20038;-81
2023/05/21 04:45:01;;;;;;;6.47;5.70;;;;;;;13.68;90.29;101932.66;4994314;28;20266;-80
2023/05/21 04:47:34;;;;;;;6.78;5.75;;;;;;;13.70;90.50;101931.72;4947357;28;20249;-81
2023/05/21 04:50:00;;;;;;;6.88;5.80;;;;;;;13.73;89.93;101933.34;4976030;28;20110;-80
2023/05/21 04:52:26;;;;;;;8.40;5.90;;;;;;;13.71;90.25;101927.28;4980211;28;20341;-80
2023/05/21 04:54:52;;;;;;;6.97;6.20;;;;;;;13.71;90.11;101930.78;4975424;28;20034;-80
2023/05/21 04:57:18;;;;;;;6.47;5.72;;;;;;;13.68;90.87;101927.41;4963088;28;20046;-80
2023/05/21 04:59:44;;;;;;;6.15;5.63;;;;;;;13.73;90.43;101928.94;4979548;28;20064;-80
2023/05/21 05:02:09;;;;;;;8.07;6.00;;;;;;;13.74;90.41;101935.09;4963052;28;20043;-80
2023/05/21 05:04:35;;;;;;;7.85;5.90;;;;;;;13.75;90.19;101923.63;4948944;28;20433;-80
2023/05/21 05:07:00;;;;;;;6.60;6.00;;;;;;;13.77;90.43;101921.78;4979078;28;20046;-80
2023/05/21 05:09:26;;;;;;;7.13;6.35;;;;;;;13.73;90.53;101926.31;4997326;28;20062;-81
2023/05/21 05:11:51;;;;;;;8.57;6.20;;;;;;;13.76;90.57;101931.47;4980953;28;20069;-80
2023/05/21 05:14:16;;;;;;;7.05;5.70;;;;;;;13.76;90.62;101920.94;4973451;28;20089;-80
2023/05/21 05:16:42;;;;;;;6.05;5.45;;;;;;;13.85;90.03;101929.44;4972455;28;20049;-80
2023/05/21 05:19:07;;;;;;;7.28;6.22;;;;;;;13.86;90.03;101923.22;4991701;28;20059;-80
2023/05/21 05:21:33;;;;;;;10.18;6.35;;;;;;;13.82;90.24;101917.22;4998368;28;20078;-80
2023/05/21 05:23:59;;;;;;;6.30;5.70;;;;;;;13.86;90.07;101925.88;4992774;28;20057;-80
2023/05/21 05:26:24;;;;;;;8.65;6.13;;;;;;;13.87;90.22;101925.81;4977844;28;20043;-80
2023/05/21 05:28:50;;;;;;;6.40;5.80;;;;;;;13.90;90.36;101916.94;4968331;28;20038;-80
2023/05/21 05:31:15;;;;;;;6.35;5.53;;;;;;;13.94;89.88;101914.13;4989107;28;20041;-80
2023/05/21 05:33:41;;;;;;;7.38;5.97;;;;;;;13.94;89.71;101915.91;4950958;28;20034;-80
2023/05/21 05:36:06;;;;;;;7.10;6.07;;;;;;;13.92;90.25;101915.97;4964824;28;20064;-80
2023/05/21 05:38:33;;;;;;;6.32;5.82;;;;;;;13.91;90.41;101910.75;4998898;28;20222;-80
2023/05/21 05:40:59;;;;;;;6.78;6.18;;;;;;;13.95;90.10;101907.97;4974526;28;20350;-80
2023/05/21 05:43:25;;;;;;;6.82;6.07;;;;;;;13.94;90.29;101898.34;4981823;28;20093;-80
2023/05/21 05:45:50;;;;;;;6.53;5.93;;;;;;;13.92;90.57;101897.53;4979172;28;20069;-81
2023/05/21 05:48:16;;;;;;;8.35;6.38;;;;;;;13.98;90.47;101901.72;4965092;28;20398;-80
2023/05/21 05:50:41;;;;;;;7.07;6.03;;;;;;;14.00;90.36;101898.09;4994398;28;20050;-80
2023/05/21 05:53:07;;;;;;;7.47;6.38;;;;;;;13.98;90.55;101901.72;4946330;28;20219;-79
2023/05/21 05:55:32;;;;;;;7.20;6.50;;;;;;;14.01;90.42;101897.19;4947012;28;20050;-79
2023/05/21 05:57:58;;;;;;;14.05;6.82;;;;;;;14.05;90.52;101897.06;4981108;28;20057;-81
2023/05/21 06:00:23;;;;;;;7.65;6.57;;;;;;;14.04;90.40;101892.72;4995974;28;20042;-81
2023/05/21 06:02:49;;;;;;;7.32;6.60;;;;;;;14.06;90.44;101893.50;4980530;28;20065;-81
2023/05/21 06:05:14;;;;;;;8.05;6.30;;;;;;;14.07;90.28;101898.72;4998213;28;20092;-79
2023/05/21 06:07:40;;;;;;;7.53;6.82;;;;;;;14.08;90.80;101905.72;4963330;28;20110;-79
2023/05/21 06:10:06;;;;;;;7.85;7.05;;;;;;;14.12;90.02;101906.47;4993551;28;20065;-80
2023/05/21 06:12:32;;;;;;;7.60;6.70;;;;;;;14.14;90.49;101902.00;4998062;28;20353;-81
2023/05/21 06:14:57;;;;;;;9.30;6.63;;;;;;;14.14;90.49;101910.75;4998437;28;20102;-81
2023/05/21 06:17:23;;;;;;;10.93;7.10;;;;;;;14.19;90.52;101910.56;4975954;28;20073;-81
2023/05/21 06:19:48;;;;;;;10.15;6.55;;;;;;;14.18;90.63;101904.44;4997942;28;20125;-81
2023/05/21 06:22:13;;;;;;;7.60;6.45;;;;;;;14.20;90.91;101913.13;4985896;28;20330;-81
2023/05/21 06:24:39;;;;;;;6.53;6.03;;;;;;;14.23;90.62;101914.81;4971437;28;20050;-81
2023/05/21 06:27:04;;;;;;;8.15;6.80;;;;;;;14.25;90.54;101915.59;4974634;28;20046;-81
2023/05/21 06:29:30;;;;;;;7.97;6.72;;;;;;;14.26;90.53;101919.97;4994520;28;20038;-81
2023/05/21 06:31:55;;;;;;;9.00;6.78;;;;;;;14.29;90.97;101916.34;4974165;28;20044;-81
2023/05/21 06:34:21;;;;;;;7.75;7.05;;;;;;;14.31;90.34;101914.50;4998107;28;20114;-81
2023/05/21 06:36:47;;;;;;;9.05;6.80;;;;;;;14.33;90.38;101916.13;4973785;28;20074;-81
2023/05/21 06:39:12;;;;;;;6.90;6.38;;;;;;;14.35;90.32;101909.06;4965654;28;20038;-81
2023/05/21 06:41:38;;;;;;;6.70;6.07;;;;;;;14.41;90.05;101915.84;4977187;28;20064;-82
2023/05/21 06:44:04;;;;;;;6.60;6.10;;;;;;;14.42;90.17;101914.91;4980269;28;20038;-81
2023/05/21 06:46:29;;;;;;;6.72;6.00;;;;;;;14.46;90.18;101913.91;4997754;28;20030;-81
2023/05/21 06:48:55;;;;;;;7.25;6.60;;;;;;;14.53;89.64;101914.50;4979908;28;20513;-81
2023/05/21 06:51:20;;;;;;;7.32;6.63;;;;;;;14.54;89.98;101911.81;4960615;28;20050;-80
2023/05/21 06:53:46;;;;;;;6.40;5.85;;;;;;;14.59;89.17;101917.78;4995495;28;20353;-81
2023/05/21 06:56:12;;;;;;;7.00;6.00;;;;;;;14.63;88.55;101917.66;4977828;28;20038;-81
2023/05/21 06:58:37;;;;;;;7.63;6.07;;;;;;;14.62;88.55;101922.06;4977759;28;20065;-81
2023/05/21 07:01:03;;;;;;;6.15;5.53;;;;;;;14.67;87.54;101924.53;4996008;28;20117;-81
2023/05/21 07:03:28;;;;;;;10.77;5.50;;;;;;;14.70;87.13;101916.50;4978602;28;20038;-79
2023/05/21 07:05:54;;;;;;;6.93;5.65;;;;;;;14.77;87.44;101917.94;4962174;28;20253;-81
2023/05/21 07:08:19;;;;;;;9.50;5.82;;;;;;;14.82;87.17;101933.59;4979257;28;20034;-80
2023/05/21 07:10:45;;;;;;;5.40;4.95;;;;;;;14.86;86.31;101921.97;4960685;28;20058;-81
2023/05/21 07:13:11;;;;;;;5.18;4.78;;;;;;;14.91;86.06;101927.94;4978301;28;20054;-80
2023/05/21 07:15:37;;;;;;;8.63;5.72;;;;;;;14.91;85.34;101931.41;4986436;28;20045;-80
2023/05/21 07:18:02;;;;;;;6.88;5.43;;;;;;;14.95;84.82;101933.03;4985875;28;20069;-80
2023/05/21 07:20:28;;;;;;;6.30;5.57;;;;;;;14.96;84.52;101932.09;5001462;28;20062;-80
2023/05/21 07:22:53;;;;;;;6.28;5.80;;;;;;;14.92;84.69;101937.56;4981850;28;20042;-80
2023/05/21 07:25:19;;;;;;;6.25;5.63;;;;;;;14.97;84.98;101932.94;4979152;28;20042;-80
2023/05/21 07:27:44;;;;;;;6.25;5.75;;;;;;;14.97;84.96;101931.19;4977984;28;20042;-80
2023/05/21 07:30:10;;;;;;;6.30;5.70;;;;;;;14.96;84.40;101931.25;4961872;28;20039;-80
2023/05/21 07:32:36;;;;;;;7.32;5.22;;;;;;;14.94;85.01;101936.56;4994516;28;20328;-80
2023/05/21 07:35:01;;;;;;;6.22;5.70;;;;;;;14.93;85.09;101929.56;4997144;28;20034;-80
2023/05/21 07:37:27;;;;;;;6.40;5.78;;;;;;;14.96;84.39;101928.59;4979195;28;20269;-80
2023/05/21 07:39:55;;;;;;;7.25;5.20;;;;;;;14.97;84.15;101932.94;4989692;28;20500;-80
2023/05/21 07:42:21;;;;;;;6.63;5.45;;;;;;;14.97;84.57;101928.53;4995670;28;20027;-80
2023/05/21 07:44:46;;;;;;;5.70;5.10;;;;;;;15.02;84.23;101930.97;4969210;28;20660;-80
2023/05/21 07:47:11;;;;;;;5.93;5.43;;;;;;;15.02;84.39;101933.59;4973036;28;20073;-80
2023/05/21 07:49:37;;;;;;;7.32;5.75;;;;;;;15.08;84.35;101927.22;4969995;28;20050;-81
2023/05/21 07:52:02;;;;;;;6.90;6.30;;;;;;;15.10;83.74;101915.69;4976971;28;20042;-80
2023/05/21 07:54:28;;;;;;;10.15;5.57;;;;;;;15.13;83.93;101915.56;4990572;28;20330;-81
2023/05/21 07:56:53;;;;;;;6.32;5.72;;;;;;;15.18;83.96;101911.88;4962396;28;20072;-81
2023/05/21 07:59:19;;;;;;;7.45;5.32;;;;;;;15.22;83.74;101914.28;4980001;28;20094;-81
2023/05/21 08:01:45;;;;;;;6.30;5.70;;;;;;;15.26;83.65;101913.25;4994378;28;20053;-80
2023/05/21 08:04:11;;;;;;;7.13;6.05;;;;;;;15.31;83.84;101913.88;4977501;28;20038;-81
2023/05/21 08:06:38;;;;;;;6.22;5.63;;;;;;;15.40;83.08;101911.78;4995142;28;20064;-81
2023/05/21 08:09:05;;;;;;;6.57;5.50;;;;;;;15.43;82.96;101915.16;4980570;28;20056;-81
2023/05/21 08:11:31;;;;;;;6.90;5.80;;;;;;;15.50;82.53;101910.47;4984824;28;20042;-80
2023/05/21 08:13:57;;;;;;;7.07;5.70;;;;;;;15.53;82.76;101916.47;4987748;28;20038;-81
2023/05/21 08:16:22;;;;;;;8.25;5.78;;;;;;;15.59;82.89;101911.81;4990231;28;20117;-81
2023/05/21 08:18:51;;;;;;;7.10;5.85;;;;;;;15.63;83.01;101914.25;5005670;28;20377;-80
2023/05/21 08:21:16;;;;;;;6.35;5.72;;;;;;;15.63;82.15;101922.19;4984260;28;20333;-80
2023/05/21 08:23:43;;;;;;;7.93;5.90;;;;;;;15.63;81.44;101916.91;4984579;28;20026;-80
2023/05/21 08:26:08;;;;;;;12.32;5.35;;;;;;;15.66;82.00;101908.84;4980173;28;20349;-80
2023/05/21 08:28:37;;;;;;;7.28;6.10;;;;;;;15.75;81.53;101910.22;4997121;28;20357;-80
2023/05/21 08:31:02;;;;;;;6.13;5.53;;;;;;;15.77;80.99;101913.69;4979650;28;20049;-81
2023/05/21 08:33:27;;;;;;;5.95;5.35;;;;;;;15.78;80.43;101909.25;4996822;28;20376;-81
2023/05/21 08:35:53;;;;;;;5.68;5.15;;;;;;;15.79;79.86;101917.13;4978076;28;20116;-80
2023/05/21 08:38:18;;;;;;;6.75;5.35;;;;;;;15.81;80.09;101907.34;4996410;28;20052;-80
2023/05/21 08:40:50;;;;;;;7.10;5.60;;;;;;;15.86;80.67;101901.81;4963342;28;20061;-80
2023/05/21 08:43:16;;;;;;;7.25;5.20;;;;;;;15.90;80.56;101900.78;4980091;28;20026;-80
2023/05/21 08:45:45;;;;;;;6.68;5.28;;;;;;;15.95;80.06;101901.38;4984388;28;20048;-80
2023/05/21 08:48:11;;;;;;;5.72;5.13;;;;;;;16.00;79.35;101902.03;4995152;28;20030;-81
2023/05/21 08:50:37;;;;;;;7.32;4.80;;;;;;;16.04;78.21;101900.97;4973933;28;20073;-80
2023/05/21 08:53:03;;;;;;;6.25;5.32;;;;;;;16.14;78.42;101904.03;4997226;28;20302;-80
2023/05/21 08:55:30;;;;;;;6.15;5.53;;;;;;;16.20;77.67;101905.53;4947129;28;20038;-80
2023/05/21 08:57:55;;;;;;;5.40;4.93;;;;;;;16.27;77.49;101899.88;4960242;28;20348;-81
2023/05/21 09:00:21;;;;;;;8.70;5.45;;;;;;;16.28;76.95;101898.97;4989505;28;20115;-80
2023/05/21 09:02:46;;;;;;;5.28;4.78;;;;;;;16.30;75.92;101905.03;4978902;28;20045;-80
2023/05/21 09:05:14;;;;;;;5.75;4.80;;;;;;;16.36;76.93;101905.69;4995546;28;20042;-80
2023/05/21 09:07:51;;;;;;;6.43;5.80;;;;;;;16.41;76.97;101896.59;4993688;28;20485;-80
2023/05/21 09:10:20;;;;;;;5.73;5.23;;;;;;;16.45;75.86;101894.66;4974102;28;20063;-81
2023/05/21 09:12:47;;;;;;;5.40;4.90;;;;;;;16.46;75.11;101894.59;4975682;28;20043;-80
2023/05/21 09:15:13;;;;;;;7.97;5.45;;;;;;;16.48;74.67;101891.84;4976196;28;20155;-81
2023/05/21 09:17:38;;;;;;;7.18;4.82;;;;;;;16.50;74.63;101892.66;4972477;28;20078;-80
2023/05/21 09:20:11;;;;;;;8.65;5.22;;;;;;;16.50;73.71;101884.72;4973123;28;20349;-81
2023/05/21 09:22:45;;;;;;;5.88;5.05;;;;;;;16.54;74.42;101891.56;4976635;28;20057;-81
2023/05/21 09:25:14;;;;;;;5.30;4.82;;;;;;;16.56;74.24;101881.75;4976656;28;20222;-80
2023/05/21 09:27:40;;;;;;;6.13;4.93;;;;;;;16.61;73.86;101887.69;4970640;28;20035;-80
2023/05/21 09:30:10;;;;;;;6.05;5.10;;;;;;;16.62;73.46;101877.94;4977302;28;20043;-80
2023/05/21 09:32:37;;;;;;;5.53;4.80;;;;;;;16.60;72.21;101885.94;4975288;28;20042;-81
2023/05/21 09:35:09;;;;;;;6.95;5.15;;;;;;;16.61;72.66;101877.09;4975533;28;20050;-81
2023/05/21 09:37:43;;;;;;;5.47;4.88;;;;;;;16.61;72.73;101885.03;4969298;28;20039;-81
2023/05/21 09:40:09;;;;;;;4.63;4.22;;;;;;;16.67;72.62;101883.88;4969317;28;20389;-81
2023/05/21 09:42:35;;;;;;;9.35;5.07;;;;;;;16.68;72.50;101875.88;4969705;28;20086;-81
2023/05/21 09:45:00;;;;;;;5.97;4.80;;;;;;;16.73;72.07;101883.56;4969310;28;20071;-80
2023/05/21 09:47:26;;;;;;;5.22;4.78;;;;;;;16.79;71.86;101879.75;4957847;28;20049;-80
2023/05/21 09:49:51;;;;;;;6.40;4.90;;;;;;;16.81;71.33;101873.47;4958445;28;20043;-81
2023/05/21 09:52:24;;;;;;;8.65;4.63;;;;;;;16.87;71.63;101875.81;4976823;28;20026;-81
2023/05/21 09:54:51;;;;;;;8.95;5.07;;;;;;;16.91;70.91;101875.66;4976097;28;20042;-80
2023/05/21 09:57:23;;;;;;;6.35;4.50;;;;;;;16.97;71.25;101864.75;4972948;28;20038;-81
2023/05/21 09:59:49;;;;;;;5.35;4.80;;;;;;;17.04;71.07;101871.44;4974338;28;20085;-81
2023/05/21 10:02:18;;;;;;;5.93;4.80;;;;;;;17.11;70.89;101877.28;4968900;28;20042;-81
2023/05/21 10:04:47;;;;;;;5.25;4.75;;;;;;;17.18;70.88;101871.59;4974342;28;20038;-81
2023/05/21 10:07:17;;;;;;;5.05;4.55;;;;;;;17.23;69.85;101874.84;4954635;28;20038;-81
2023/05/21 10:09:46;;;;;;;6.32;4.93;;;;;;;17.33;70.23;101880.50;4988852;28;20042;-81
2023/05/21 10:12:12;;;;;;;9.75;5.40;;;;;;;17.41;70.49;101870.38;4985047;28;20100;-81
2023/05/21 10:14:40;;;;;;;4.95;4.55;;;;;;;17.49;70.56;101863.84;4987401;28;20396;-81
2023/05/21 10:17:06;;;;;;;6.60;4.47;;;;;;;17.51;69.34;101867.25;5001778;28;20301;-81
2023/05/21 10:19:32;;;;;;;5.60;5.10;;;;;;;17.55;69.48;101859.03;5000074;28;20058;-81
2023/05/21 10:22:00;;;;;;;7.22;4.95;;;;;;;17.60;69.29;101851.72;4960122;28;20117;-81
2023/05/21 10:24:26;;;;;;;6.22;4.93;;;;;;;17.69;69.75;101858.31;4977065;28;20038;-80
2023/05/21 10:26:51;;;;;;;6.32;5.40;;;;;;;17.68;68.65;101861.03;4992351;28;20046;-80
2023/05/21 10:29:18;;;;;;;5.18;4.68;;;;;;;17.70;68.59;101867.97;4978101;28;20049;-80
2023/05/21 10:31:48;;;;;;;8.60;4.97;;;;;;;17.75;69.04;101857.97;4991575;28;20034;-81
2023/05/21 10:34:13;;;;;;;5.18;4.47;;;;;;;17.84;69.60;101864.56;4975833;28;20046;-81
2023/05/21 10:36:40;;;;;;;5.28;4.80;;;;;;;17.90;69.03;101860.75;4991195;28;20308;-81
2023/05/21 10:39:07;;;;;;;6.07;5.47;;;;;;;17.99;69.12;101853.16;4992333;28;20065;-81
2023/05/21 10:41:50;;;;;;;8.43;5.43;;;;;;;18.07;67.82;101858.00;4974077;28;20157;-80
2023/05/21 10:44:55;;;;;;;7.18;5.65;;;;;;;18.11;67.19;101853.41;4968125;28;20108;-81
2023/05/21 10:47:27;;;;;;;9.00;5.30;;;;;;;18.16;67.80;101859.28;4982312;28;20052;-81
2023/05/21 10:50:27;;;;;;;6.03;5.53;;;;;;;18.19;68.04;101845.84;4991987;28;20056;-81
2023/05/21 10:53:18;;;;;;;5.72;4.95;;;;;;;18.25;67.29;101850.81;4979638;28;20038;-81
2023/05/21 10:55:57;;;;;;;8.25;5.13;;;;;;;18.25;67.30;101842.88;4991082;28;20042;-81
2023/05/21 10:59:03;;;;;;;5.95;4.93;;;;;;;18.33;67.53;101835.31;4988323;28;20034;-81
2023/05/21 11:01:34;;;;;;;6.32;5.60;;;;;;;18.33;66.81;101843.25;4961364;28;20035;-81
2023/05/21 11:03:59;;;;;;;5.90;5.35;;;;;;;18.35;66.72;101833.41;4975407;28;20046;-81
2023/05/21 11:06:25;;;;;;;6.05;5.07;;;;;;;18.35;66.56;101836.06;4974652;28;20118;-81
2023/05/21 11:08:54;;;;;;;9.40;5.53;;;;;;;18.36;68.46;101835.13;4974468;28;20311;-80
2023/05/21 11:11:41;;;;;;;8.02;5.60;;;;;;;18.34;66.96;101828.22;4975093;28;20034;-81
2023/05/21 11:14:25;;;;;;;13.35;5.47;;;;;;;18.32;67.07;101822.13;4994212;28;20053;-81
2023/05/21 11:16:50;;;;;;;6.00;5.20;;;;;;;18.34;67.32;101814.97;4988891;28;20109;-81
2023/05/21 11:19:16;;;;;;;9.30;5.63;;;;;;;18.38;66.94;101829.75;4995348;28;20060;-81
2023/05/21 11:21:42;;;;;;;6.50;5.65;;;;;;;18.36;66.88;101813.94;4993481;28;20069;-81
2023/05/21 11:24:09;;;;;;;7.80;5.28;;;;;;;18.35;66.99;101820.16;4988029;28;20249;-81
2023/05/21 11:26:47;;;;;;;10.52;6.00;;;;;;;18.35;67.51;101819.31;4969034;28;21007;-81